Time;durP1;ratioP1;P1;durP2;ratioP2;P2;SDS_P1;SDS_P2;PMS_P1;PMS_P2;Temp;Humidity;BMP_temperature;BMP_pressure;BME280_temperature;BME280_humidity;BME280_pressure;Samples;Min_cycle;Max_cycle;Signal;HPM_P1;HPM_P2
2020/12/15 00:00:56;;;;;;;13.77;12.27;;;5.20;99.90;;;;;;4953575;28;20215;-43
2020/12/15 00:03:23;;;;;;;13.00;11.70;;;5.20;99.90;;;;;;4954624;28;20234;-41
2020/12/15 00:05:52;;;;;;;13.10;10.53;;;5.30;99.90;;;;;;4957468;29;20303;-41
2020/12/15 00:08:19;;;;;;;14.03;11.87;;;5.30;99.90;;;;;;4957302;29;20698;-41
2020/12/15 00:10:47;;;;;;;12.83;11.50;;;5.20;99.90;;;;;;4957129;28;20263;-41
2020/12/15 00:13:14;;;;;;;14.60;11.90;;;5.30;99.90;;;;;;4957281;29;20314;-41
2020/12/15 00:15:41;;;;;;;15.63;12.60;;;5.30;99.90;;;;;;4957419;29;20302;-42
2020/12/15 00:18:08;;;;;;;13.77;12.00;;;5.30;99.90;;;;;;4957222;29;20211;-41
2020/12/15 00:20:35;;;;;;;13.35;11.38;;;5.30;99.90;;;;;;4957699;28;20270;-42
2020/12/15 00:23:02;;;;;;;15.60;12.33;;;5.20;99.90;;;;;;4957037;29;20270;-42
2020/12/15 00:25:29;;;;;;;13.13;11.73;;;5.20;99.90;;;;;;4957189;29;20215;-41
2020/12/15 00:27:57;;;;;;;15.60;13.02;;;5.10;99.90;;;;;;4957269;29;20241;-41
2020/12/15 00:30:25;;;;;;;15.20;12.53;;;5.10;99.90;;;;;;4957173;29;20217;-42
2020/12/15 00:32:52;;;;;;;15.27;12.57;;;5.10;99.90;;;;;;4957030;29;20257;-42
2020/12/15 00:35:19;;;;;;;13.97;11.57;;;5.00;99.90;;;;;;4956947;29;20715;-42
2020/12/15 00:37:46;;;;;;;15.93;13.60;;;5.00;99.90;;;;;;4956836;28;20265;-42
2020/12/15 00:40:14;;;;;;;16.53;13.77;;;5.10;99.90;;;;;;4957015;29;20239;-42
2020/12/15 00:42:41;;;;;;;16.97;13.77;;;5.10;99.90;;;;;;4956513;28;20255;-42
2020/12/15 00:45:10;;;;;;;16.67;12.27;;;5.10;99.90;;;;;;4956668;29;20663;-42
2020/12/15 00:47:37;;;;;;;13.30;11.50;;;5.10;99.90;;;;;;4957018;28;20332;-42
2020/12/15 00:50:06;;;;;;;15.77;14.00;;;5.10;99.90;;;;;;4956508;28;20246;-42
2020/12/15 00:52:33;;;;;;;15.17;12.43;;;5.10;99.90;;;;;;4956475;29;20271;-42
2020/12/15 00:55:00;;;;;;;14.07;11.67;;;5.10;99.90;;;;;;4956829;29;20208;-42
2020/12/15 00:57:28;;;;;;;18.47;14.33;;;5.10;99.90;;;;;;4956725;29;20218;-43
2020/12/15 00:59:55;;;;;;;14.07;12.13;;;5.10;99.90;;;;;;4956412;29;20612;-44
2020/12/15 01:02:23;;;;;;;21.00;13.03;;;5.10;99.90;;;;;;4956392;28;20243;-42
2020/12/15 01:04:50;;;;;;;15.50;13.07;;;5.00;99.90;;;;;;4956448;29;20294;-42
2020/12/15 01:07:17;;;;;;;15.37;11.90;;;5.00;99.90;;;;;;4956436;29;20625;-42
2020/12/15 01:09:44;;;;;;;17.10;12.33;;;5.00;99.90;;;;;;4956278;29;20235;-42
2020/12/15 01:12:13;;;;;;;16.63;13.00;;;5.00;99.90;;;;;;4956565;29;20277;-42
2020/12/15 01:14:40;;;;;;;16.17;12.60;;;5.10;99.90;;;;;;4955295;28;20243;-41
2020/12/15 01:17:07;;;;;;;16.03;13.87;;;5.00;99.90;;;;;;4956241;29;20212;-41
2020/12/15 01:19:36;;;;;;;16.77;14.03;;;4.90;99.90;;;;;;4956137;29;20211;-41
2020/12/15 01:22:03;;;;;;;17.80;15.90;;;4.80;99.90;;;;;;4956349;28;20227;-42
2020/12/15 01:24:30;;;;;;;35.43;32.20;;;4.80;99.90;;;;;;4955959;29;20268;-41
2020/12/15 01:26:57;;;;;;;15.10;13.50;;;4.80;99.90;;;;;;4956107;28;20215;-42
2020/12/15 01:29:24;;;;;;;21.23;19.27;;;4.90;99.90;;;;;;4955918;28;20242;-42
2020/12/15 01:31:51;;;;;;;13.43;12.03;;;4.90;99.90;;;;;;4955923;28;20242;-44
2020/12/15 01:34:19;;;;;;;13.70;12.23;;;4.90;99.90;;;;;;4955659;29;20218;-42
2020/12/15 01:36:48;;;;;;;13.77;12.03;;;4.80;99.90;;;;;;4955803;29;20219;-42
2020/12/15 01:39:14;;;;;;;19.50;13.57;;;4.70;99.90;;;;;;4955845;29;20298;-41
2020/12/15 01:41:41;;;;;;;15.63;11.67;;;4.70;99.90;;;;;;4955814;29;20239;-41
2020/12/15 01:44:09;;;;;;;16.97;11.63;;;4.70;99.90;;;;;;4955552;29;20270;-42
2020/12/15 01:46:36;;;;;;;19.37;13.67;;;4.70;99.90;;;;;;4955589;28;20302;-42
2020/12/15 01:49:04;;;;;;;18.77;12.87;;;4.70;99.90;;;;;;4955569;28;20208;-42
2020/12/15 01:51:31;;;;;;;14.40;10.93;;;4.70;99.90;;;;;;4955377;28;20318;-42
2020/12/15 01:53:59;;;;;;;17.77;11.07;;;4.80;99.90;;;;;;4955507;29;20275;-43
2020/12/15 01:56:27;;;;;;;18.17;11.40;;;4.80;99.90;;;;;;4955342;29;20258;-42
2020/12/15 01:58:56;;;;;;;13.13;11.27;;;4.90;99.90;;;;;;4955447;28;20216;-41
2020/12/15 02:01:24;;;;;;;18.73;12.17;;;4.90;99.90;;;;;;4955573;29;20685;-41
2020/12/15 02:03:52;;;;;;;25.47;11.37;;;4.90;99.90;;;;;;4955214;29;20258;-42
2020/12/15 02:06:20;;;;;;;18.90;12.03;;;4.90;99.90;;;;;;4955477;29;20215;-42
2020/12/15 02:08:48;;;;;;;19.37;11.77;;;4.90;99.90;;;;;;4955306;28;20639;-41
2020/12/15 02:11:16;;;;;;;22.33;11.53;;;4.90;99.90;;;;;;4955079;29;20753;-42
2020/12/15 02:13:43;;;;;;;23.13;13.67;;;4.90;99.90;;;;;;4954858;28;20207;-43
2020/12/15 02:16:12;;;;;;;22.73;12.53;;;4.90;99.90;;;;;;4955268;29;20310;-42
2020/12/15 02:18:39;;;;;;;27.63;19.07;;;4.80;99.90;;;;;;4955137;29;20310;-42
2020/12/15 02:21:08;;;;;;;19.43;17.27;;;4.70;99.90;;;;;;4954944;29;20222;-42
2020/12/15 02:23:36;;;;;;;20.23;12.30;;;4.70;99.90;;;;;;4954881;29;20367;-41
2020/12/15 02:26:07;;;;;;;16.00;12.53;;;4.60;99.90;;;;;;4954621;28;20674;-41
2020/12/15 02:28:35;;;;;;;17.27;14.40;;;4.60;99.90;;;;;;4954955;29;20207;-42
2020/12/15 02:31:02;;;;;;;26.67;13.47;;;4.50;99.90;;;;;;4955035;29;20218;-43
2020/12/15 02:33:30;;;;;;;18.47;16.20;;;4.50;99.90;;;;;;4954963;29;20689;-43
2020/12/15 02:35:57;;;;;;;18.43;14.93;;;4.60;99.90;;;;;;4954641;29;20298;-44
2020/12/15 02:38:24;;;;;;;17.03;12.07;;;4.60;99.90;;;;;;4955043;29;20299;-43
2020/12/15 02:40:52;;;;;;;11.53;10.20;;;4.70;99.90;;;;;;4954585;29;20215;-42
2020/12/15 02:43:19;;;;;;;16.90;11.27;;;4.80;99.90;;;;;;4954533;29;20246;-44
2020/12/15 02:45:46;;;;;;;17.50;13.37;;;4.80;99.90;;;;;;4954648;28;20215;-42
2020/12/15 02:48:14;;;;;;;16.77;12.50;;;4.80;99.90;;;;;;4954707;28;20227;-42
2020/12/15 02:50:41;;;;;;;15.13;11.77;;;4.90;99.90;;;;;;4954381;28;20239;-43
2020/12/15 02:53:08;;;;;;;25.60;16.30;;;4.90;99.90;;;;;;4954314;29;20693;-43
2020/12/15 02:55:34;;;;;;;28.90;23.00;;;4.90;99.90;;;;;;4954341;28;20674;-44
2020/12/15 02:58:02;;;;;;;14.23;12.17;;;5.00;99.90;;;;;;4954472;28;20682;-43
2020/12/15 03:00:29;;;;;;;19.67;16.70;;;5.00;99.90;;;;;;4954446;29;20299;-44
2020/12/15 03:02:56;;;;;;;12.20;10.87;;;4.90;99.90;;;;;;4954342;29;20231;-43
2020/12/15 03:05:23;;;;;;;12.63;11.30;;;5.00;99.90;;;;;;4954392;29;20581;-43
2020/12/15 03:07:50;;;;;;;17.90;16.20;;;5.00;99.90;;;;;;4954064;29;20215;-42
2020/12/15 03:10:18;;;;;;;12.98;11.63;;;4.90;99.90;;;;;;4954185;29;20213;-45
2020/12/15 03:12:45;;;;;;;9.25;8.38;;;4.90;99.90;;;;;;4954323;28;20234;-42
2020/12/15 03:15:14;;;;;;;11.33;10.23;;;4.90;99.90;;;;;;4954262;29;20223;-43
2020/12/15 03:17:41;;;;;;;12.77;11.03;;;4.90;99.90;;;;;;4954034;29;20331;-43
2020/12/15 03:20:08;;;;;;;12.13;10.83;;;5.00;99.90;;;;;;4954204;29;20315;-43
2020/12/15 03:22:35;;;;;;;12.63;11.30;;;5.00;99.90;;;;;;4954020;29;20299;-42
2020/12/15 03:25:02;;;;;;;12.50;10.67;;;5.00;99.90;;;;;;4954212;29;20211;-46
2020/12/15 03:27:29;;;;;;;10.73;9.67;;;5.00;99.90;;;;;;4953992;29;20307;-43
2020/12/15 03:29:56;;;;;;;10.60;9.00;;;5.00;99.90;;;;;;4953899;29;20211;-42
2020/12/15 03:32:24;;;;;;;11.50;9.17;;;4.90;99.90;;;;;;4954104;29;20215;-42
2020/12/15 03:34:51;;;;;;;10.33;8.40;;;4.90;99.90;;;;;;4953908;29;20427;-42
2020/12/15 03:37:18;;;;;;;11.27;10.07;;;4.90;99.90;;;;;;4953728;28;20323;-44
2020/12/15 03:39:45;;;;;;;11.50;10.23;;;4.80;99.90;;;;;;4953493;28;20291;-44
2020/12/15 03:42:12;;;;;;;11.40;9.93;;;4.90;99.90;;;;;;4953836;29;20689;-44
2020/12/15 03:44:41;;;;;;;20.73;15.70;;;4.90;99.90;;;;;;4953799;29;20227;-42
2020/12/15 03:47:08;;;;;;;12.50;9.50;;;5.00;99.90;;;;;;4953737;29;20302;-46
2020/12/15 03:49:36;;;;;;;15.07;11.67;;;5.10;99.90;;;;;;4953676;28;20265;-43
2020/12/15 03:52:03;;;;;;;20.10;12.77;;;5.10;99.90;;;;;;4953652;29;20251;-43
2020/12/15 03:54:30;;;;;;;20.10;13.97;;;5.10;99.90;;;;;;4953899;28;20417;-46
2020/12/15 03:56:57;;;;;;;9.40;8.40;;;5.20;99.90;;;;;;4953795;28;20251;-43
2020/12/15 03:59:24;;;;;;;13.87;10.80;;;5.20;99.90;;;;;;4953590;28;20682;-43
2020/12/15 04:01:51;;;;;;;15.77;10.03;;;5.20;99.90;;;;;;4953693;29;20212;-43
2020/12/15 04:04:19;;;;;;;9.67;8.67;;;5.20;99.90;;;;;;4953529;28;20245;-42
2020/12/15 04:06:47;;;;;;;10.87;9.20;;;5.30;99.90;;;;;;4953606;29;20254;-42
2020/12/15 04:09:14;;;;;;;11.93;10.07;;;5.30;99.90;;;;;;4953857;29;20586;-43
2020/12/15 04:11:41;;;;;;;19.37;11.93;;;5.30;99.90;;;;;;4953751;29;20644;-42
2020/12/15 04:14:08;;;;;;;16.00;11.47;;;5.20;99.90;;;;;;4953443;29;20666;-42
2020/12/15 04:16:35;;;;;;;13.60;10.83;;;5.30;99.90;;;;;;4953598;28;20246;-49
2020/12/15 04:19:02;;;;;;;16.23;12.17;;;5.20;99.90;;;;;;4953624;29;20738;-44
2020/12/15 04:21:29;;;;;;;16.20;9.90;;;5.20;99.90;;;;;;4953556;29;20212;-41
2020/12/15 04:23:57;;;;;;;14.67;9.97;;;5.20;99.90;;;;;;4953493;29;20407;-42
2020/12/15 04:26:24;;;;;;;18.93;14.13;;;5.20;99.90;;;;;;4953423;29;20302;-41
2020/12/15 04:28:51;;;;;;;16.83;12.50;;;5.20;99.90;;;;;;4953485;29;20650;-40
2020/12/15 04:31:18;;;;;;;18.20;13.03;;;5.20;99.90;;;;;;4953646;29;20699;-39
2020/12/15 04:33:45;;;;;;;11.73;10.53;;;5.30;99.90;;;;;;4953613;28;20215;-39
2020/12/15 04:36:13;;;;;;;16.00;10.40;;;5.30;99.90;;;;;;4953664;29;20235;-40
2020/12/15 04:38:40;;;;;;;19.67;16.47;;;5.20;99.90;;;;;;4953412;29;20757;-42
2020/12/15 04:41:07;;;;;;;13.30;11.82;;;5.20;99.90;;;;;;4953298;29;20251;-43
2020/12/15 04:43:35;;;;;;;10.20;9.10;;;5.10;99.90;;;;;;4953290;28;20319;-43
2020/12/15 04:46:03;;;;;;;10.30;8.70;;;5.10;99.90;;;;;;4953566;29;20270;-43
2020/12/15 04:48:35;;;;;;;16.27;14.50;;;5.10;99.90;;;;;;4953460;28;20250;-44
2020/12/15 04:51:03;;;;;;;11.43;10.23;;;5.10;99.90;;;;;;4955421;28;20247;-45
2020/12/15 04:53:35;;;;;;;19.83;13.67;;;5.00;99.90;;;;;;4956731;29;20218;-46
2020/12/15 04:56:20;;;;;;;11.60;10.23;;;5.00;99.90;;;;;;4956569;29;20218;-44
2020/12/15 04:58:49;;;;;;;11.33;10.10;;;5.00;99.90;;;;;;4956569;29;20310;-44
2020/12/15 05:01:20;;;;;;;12.37;10.63;;;5.20;99.90;;;;;;4956473;29;20215;-42
2020/12/15 05:03:48;;;;;;;11.37;10.27;;;5.20;99.90;;;;;;4956433;29;20281;-42
2020/12/15 05:06:16;;;;;;;11.50;10.30;;;5.00;99.90;;;;;;4956333;29;20700;-42
2020/12/15 05:08:48;;;;;;;10.10;9.13;;;5.00;99.90;;;;;;4956222;29;20207;-41
2020/12/15 05:11:16;;;;;;;11.40;10.30;;;4.90;99.90;;;;;;4956495;29;20236;-41
2020/12/15 05:13:42;;;;;;;21.50;17.07;;;4.80;99.90;;;;;;4956350;29;20210;-41
2020/12/15 05:16:10;;;;;;;18.43;13.57;;;4.80;99.90;;;;;;4956196;29;20592;-41
2020/12/15 05:18:37;;;;;;;12.43;11.13;;;4.90;99.90;;;;;;4956088;29;20231;-41
2020/12/15 05:21:15;;;;;;;17.73;14.83;;;4.90;99.90;;;;;;4955867;29;20211;-43
2020/12/15 05:23:48;;;;;;;19.45;16.33;;;4.90;99.90;;;;;;4956089;29;20235;-47
2020/12/15 05:26:23;;;;;;;14.00;12.50;;;4.90;99.90;;;;;;4955941;29;20718;-44
2020/12/15 05:29:02;;;;;;;12.63;10.77;;;4.90;99.90;;;;;;4955973;29;20233;-41
2020/12/15 05:31:29;;;;;;;24.27;20.10;;;5.00;99.90;;;;;;4955942;29;20227;-44
2020/12/15 05:33:57;;;;;;;31.15;26.95;;;5.00;99.90;;;;;;4955893;28;20689;-43
2020/12/15 05:36:25;;;;;;;14.27;12.50;;;5.10;99.90;;;;;;4956102;29;20235;-41
2020/12/15 05:39:04;;;;;;;27.57;24.67;;;5.10;99.90;;;;;;4955854;29;20638;-42
2020/12/15 05:41:33;;;;;;;17.13;14.70;;;5.20;99.90;;;;;;4955895;28;20258;-41
2020/12/15 05:44:00;;;;;;;12.95;11.60;;;5.10;99.90;;;;;;4955759;29;20231;-42
2020/12/15 05:46:29;;;;;;;11.95;10.82;;;5.00;99.90;;;;;;4955768;29;20306;-40
2020/12/15 05:49:04;;;;;;;17.63;15.77;;;4.90;99.90;;;;;;4955672;29;20211;-42
2020/12/15 05:51:38;;;;;;;13.80;12.37;;;4.90;99.90;;;;;;4955508;28;20239;-41
2020/12/15 05:54:07;;;;;;;15.87;12.70;;;4.90;99.90;;;;;;4955702;28;20285;-43
2020/12/15 05:56:37;;;;;;;17.47;14.20;;;4.90;99.90;;;;;;4955593;29;20262;-41
2020/12/15 05:59:28;;;;;;;19.57;15.87;;;4.90;99.90;;;;;;4956114;29;20218;-43
2020/12/15 06:02:04;;;;;;;23.07;16.70;;;4.90;99.90;;;;;;4940512;28;20302;-39
2020/12/15 06:04:33;;;;;;;12.57;9.70;;;5.00;99.90;;;;;;4955524;29;20235;-39
2020/12/15 06:07:01;;;;;;;10.57;9.57;;;5.00;99.90;;;;;;4955339;29;20393;-41
2020/12/15 06:09:30;;;;;;;9.57;8.63;;;5.00;99.90;;;;;;4955471;29;20573;-41
2020/12/15 06:11:58;;;;;;;11.77;10.67;;;4.90;99.90;;;;;;4955306;29;20215;-41
2020/12/15 06:14:26;;;;;;;10.30;9.30;;;4.90;99.90;;;;;;4954512;29;20215;-41
2020/12/15 06:16:54;;;;;;;19.23;13.87;;;4.80;99.90;;;;;;4954866;29;20218;-43
2020/12/15 06:19:30;;;;;;;14.43;11.20;;;4.90;99.90;;;;;;4954918;29;20208;-41
2020/12/15 06:21:58;;;;;;;11.13;9.77;;;4.90;99.90;;;;;;4955145;29;20228;-44
2020/12/15 06:24:27;;;;;;;14.07;10.40;;;4.90;99.90;;;;;;4955225;29;20263;-44
2020/12/15 06:26:58;;;;;;;12.47;10.83;;;4.90;99.90;;;;;;4954933;29;20215;-45
2020/12/15 06:29:32;;;;;;;12.07;10.45;;;4.80;99.90;;;;;;4955095;28;20215;-42
2020/12/15 06:32:00;;;;;;;15.97;11.20;;;4.90;99.90;;;;;;4954943;28;20261;-42
2020/12/15 06:34:31;;;;;;;15.40;11.00;;;4.80;99.90;;;;;;4954952;29;20290;-43
2020/12/15 06:37:00;;;;;;;12.30;9.93;;;4.80;99.90;;;;;;4954592;29;20219;-44
2020/12/15 06:39:28;;;;;;;13.90;12.50;;;4.80;99.90;;;;;;4954690;28;20298;-42
2020/12/15 06:41:57;;;;;;;10.37;9.23;;;4.70;99.90;;;;;;4954571;28;20422;-47
2020/12/15 06:44:32;;;;;;;24.33;13.80;;;4.70;99.90;;;;;;4954472;28;20314;-42
2020/12/15 06:47:01;;;;;;;14.87;10.77;;;4.80;99.90;;;;;;4954369;29;20297;-44
2020/12/15 06:49:33;;;;;;;17.40;10.97;;;4.90;99.90;;;;;;4954486;29;20749;-43
2020/12/15 06:52:03;;;;;;;12.47;10.53;;;4.90;99.90;;;;;;4954416;29;20286;-42
2020/12/15 06:54:31;;;;;;;16.00;11.87;;;5.00;99.90;;;;;;4954447;29;20211;-43
2020/12/15 06:57:03;;;;;;;13.67;10.57;;;5.00;99.90;;;;;;4954311;29;20215;-42
2020/12/15 06:59:36;;;;;;;10.70;9.10;;;5.10;99.90;;;;;;4954276;29;20573;-43
2020/12/15 07:02:07;;;;;;;9.27;8.13;;;5.10;99.90;;;;;;4954504;28;20243;-44
2020/12/15 07:04:43;;;;;;;9.20;8.40;;;5.10;99.90;;;;;;4954457;29;20238;-41
2020/12/15 07:07:10;;;;;;;9.23;8.43;;;5.00;99.90;;;;;;4954395;29;20264;-43
2020/12/15 07:09:37;;;;;;;11.13;9.40;;;4.90;99.90;;;;;;4954130;28;20749;-43
2020/12/15 07:12:11;;;;;;;11.00;9.90;;;4.80;99.90;;;;;;4953957;28;20570;-43
2020/12/15 07:14:38;;;;;;;13.10;11.80;;;4.70;99.90;;;;;;4953883;29;20311;-42
2020/12/15 07:17:05;;;;;;;13.57;12.03;;;4.60;99.90;;;;;;4954155;28;20635;-44
2020/12/15 07:19:32;;;;;;;15.87;14.17;;;4.60;99.90;;;;;;4953962;29;20311;-43
2020/12/15 07:22:00;;;;;;;22.70;11.37;;;4.60;99.90;;;;;;4953916;29;20733;-43
2020/12/15 07:24:27;;;;;;;19.53;11.90;;;4.60;99.90;;;;;;4953993;29;20699;-45
2020/12/15 07:26:54;;;;;;;12.60;11.30;;;4.70;99.90;;;;;;4954060;29;20581;-43
2020/12/15 07:29:22;;;;;;;11.95;9.50;;;4.70;99.90;;;;;;4954210;28;20235;-45
2020/12/15 07:31:49;;;;;;;25.23;14.83;;;4.70;99.90;;;;;;4953984;29;20302;-46
2020/12/15 07:34:22;;;;;;;12.03;10.83;;;4.70;99.90;;;;;;4954022;29;20294;-44
2020/12/15 07:36:51;;;;;;;11.77;10.63;;;4.70;99.90;;;;;;4953825;28;20301;-44
2020/12/15 07:39:19;;;;;;;12.10;10.80;;;4.70;99.90;;;;;;4954042;29;20315;-43
2020/12/15 07:41:56;;;;;;;12.93;11.63;;;4.70;99.90;;;;;;4953965;29;20235;-43
2020/12/15 07:44:23;;;;;;;23.07;14.80;;;4.80;99.90;;;;;;4954054;28;20294;-42
2020/12/15 07:46:50;;;;;;;20.83;14.17;;;4.80;99.90;;;;;;4953692;29;20207;-42
2020/12/15 07:49:18;;;;;;;13.50;12.10;;;4.80;99.90;;;;;;4954014;29;20971;-43
2020/12/15 07:51:45;;;;;;;138.13;89.03;;;4.90;99.90;;;;;;4953804;28;20312;-43
2020/12/15 07:54:13;;;;;;;41.10;30.50;;;4.90;99.90;;;;;;4953996;29;20207;-43
2020/12/15 07:56:40;;;;;;;27.27;20.53;;;4.90;99.90;;;;;;4953526;29;20294;-45
2020/12/15 07:59:12;;;;;;;21.87;16.87;;;4.90;99.90;;;;;;4953480;29;20207;-42
2020/12/15 08:01:40;;;;;;;18.30;16.50;;;4.90;99.90;;;;;;4953571;28;20676;-44
2020/12/15 08:04:09;;;;;;;38.57;34.37;;;5.00;99.90;;;;;;4953838;29;20732;-43
2020/12/15 08:06:38;;;;;;;41.10;36.70;;;5.10;99.90;;;;;;4953736;29;20222;-42
2020/12/15 08:09:06;;;;;;;26.90;24.00;;;5.10;99.90;;;;;;4953789;29;20207;-41
2020/12/15 08:11:35;;;;;;;29.63;26.53;;;5.00;99.90;;;;;;4953970;28;20306;-42
2020/12/15 08:14:03;;;;;;;36.63;33.03;;;5.00;99.90;;;;;;4953587;29;20219;-41
2020/12/15 08:16:31;;;;;;;30.53;27.60;;;4.90;99.90;;;;;;4953933;29;20211;-42
2020/12/15 08:19:00;;;;;;;33.43;27.80;;;4.80;99.90;;;;;;4953916;29;20347;-41
2020/12/15 08:21:38;;;;;;;34.67;24.43;;;4.80;99.90;;;;;;4953731;28;20289;-42
2020/12/15 08:24:09;;;;;;;31.17;24.10;;;4.70;99.90;;;;;;4954126;28;20233;-42
2020/12/15 08:26:36;;;;;;;34.50;25.50;;;4.60;99.90;;;;;;4957761;29;20299;-42
2020/12/15 08:29:07;;;;;;;32.23;24.47;;;4.60;99.90;;;;;;4957446;29;20211;-42
2020/12/15 08:31:35;;;;;;;24.23;19.87;;;4.70;99.90;;;;;;4957562;29;20591;-42
2020/12/15 08:34:10;;;;;;;23.00;17.03;;;4.80;99.90;;;;;;4957296;28;20222;-42
2020/12/15 08:36:42;;;;;;;22.43;16.47;;;4.90;99.90;;;;;;4957141;29;20215;-41
2020/12/15 08:39:11;;;;;;;15.47;13.63;;;5.00;99.90;;;;;;4956979;29;20235;-42
2020/12/15 08:41:47;;;;;;;17.57;14.37;;;5.10;99.90;;;;;;4956948;29;20285;-43
2020/12/15 08:44:14;;;;;;;18.57;14.80;;;5.00;99.90;;;;;;4957313;29;20226;-42
2020/12/15 08:46:41;;;;;;;17.20;15.40;;;5.10;99.90;;;;;;4957108;29;20235;-44
2020/12/15 08:49:13;;;;;;;15.73;14.03;;;5.10;99.90;;;;;;4956687;29;20226;-42
2020/12/15 08:51:43;;;;;;;20.73;14.00;;;5.10;99.90;;;;;;4956469;29;20294;-43
2020/12/15 08:54:11;;;;;;;15.20;13.30;;;5.20;99.90;;;;;;4957085;29;20212;-41
2020/12/15 08:56:39;;;;;;;15.53;13.03;;;5.20;99.90;;;;;;4956874;29;20215;-42
2020/12/15 08:59:10;;;;;;;16.90;14.33;;;5.30;99.90;;;;;;4956794;29;20258;-43
2020/12/15 09:01:38;;;;;;;23.70;17.17;;;5.30;99.90;;;;;;4956881;28;20340;-42
2020/12/15 09:04:05;;;;;;;20.53;17.30;;;5.40;99.90;;;;;;4956624;29;20224;-42
2020/12/15 09:06:33;;;;;;;15.50;13.60;;;5.40;99.90;;;;;;4957187;29;20306;-39
2020/12/15 09:09:01;;;;;;;20.13;14.80;;;5.50;99.90;;;;;;4956986;29;20426;-42
2020/12/15 09:11:29;;;;;;;20.73;15.90;;;5.60;99.90;;;;;;4956439;28;20250;-41
2020/12/15 09:13:57;;;;;;;14.70;13.13;;;5.70;99.90;;;;;;4956279;28;20290;-42
2020/12/15 09:16:26;;;;;;;18.20;13.83;;;5.90;99.90;;;;;;4956271;28;20306;-47
2020/12/15 09:18:54;;;;;;;13.17;11.77;;;6.00;99.90;;;;;;4956190;28;20329;-43
2020/12/15 09:21:21;;;;;;;19.37;16.23;;;6.20;99.90;;;;;;4956246;29;20250;-46
2020/12/15 09:23:49;;;;;;;16.40;12.57;;;6.30;99.90;;;;;;4956240;29;20222;-42
2020/12/15 09:26:17;;;;;;;14.30;12.82;;;6.30;99.90;;;;;;4956073;29;20230;-42
2020/12/15 09:28:44;;;;;;;23.93;16.40;;;6.30;99.90;;;;;;4955944;29;20298;-41
2020/12/15 09:31:15;;;;;;;15.17;12.70;;;6.30;99.90;;;;;;4956029;28;20235;-42
2020/12/15 09:33:42;;;;;;;18.60;14.17;;;6.20;99.90;;;;;;4956053;29;20762;-41
2020/12/15 09:36:12;;;;;;;19.90;15.93;;;6.20;99.90;;;;;;4955196;28;20339;-41
2020/12/15 09:38:39;;;;;;;18.40;14.50;;;6.10;99.90;;;;;;4956348;28;20314;-42
2020/12/15 09:41:07;;;;;;;19.70;15.07;;;5.90;99.90;;;;;;4956122;28;20307;-40
2020/12/15 09:43:34;;;;;;;42.78;38.55;;;5.80;99.90;;;;;;4955806;28;20243;-42
2020/12/15 09:46:02;;;;;;;27.17;24.77;;;5.70;99.90;;;;;;4955604;28;20235;-40
2020/12/15 09:48:30;;;;;;;15.93;14.33;;;5.80;99.90;;;;;;4955935;29;20295;-41
2020/12/15 09:50:58;;;;;;;15.83;12.93;;;5.90;99.90;;;;;;4955604;29;20239;-41
2020/12/15 09:53:26;;;;;;;13.23;11.83;;;6.00;99.90;;;;;;4955698;28;20215;-41
2020/12/15 09:55:53;;;;;;;15.18;13.50;;;6.00;99.90;;;;;;4955661;29;20663;-41
2020/12/15 09:58:21;;;;;;;16.43;13.47;;;6.20;99.90;;;;;;4955372;29;20561;-40
2020/12/15 10:01:08;;;;;;;13.93;12.37;;;6.20;99.90;;;;;;4955848;29;20223;-40
2020/12/15 10:03:36;;;;;;;12.67;11.37;;;6.20;99.90;;;;;;4955740;28;20222;-43
2020/12/15 10:06:04;;;;;;;15.70;11.80;;;6.30;99.90;;;;;;4955422;29;20270;-43
2020/12/15 10:08:46;;;;;;;13.40;11.87;;;6.40;99.90;;;;;;4955463;29;20211;-41
2020/12/15 10:11:14;;;;;;;32.88;29.05;;;6.60;99.90;;;;;;4955334;29;20678;-40
2020/12/15 10:13:42;;;;;;;21.57;19.53;;;6.60;99.90;;;;;;4955353;29;20620;-41
2020/12/15 10:16:10;;;;;;;14.80;13.40;;;6.60;99.90;;;;;;4954985;29;20218;-42
2020/12/15 10:18:38;;;;;;;12.40;11.10;;;6.70;99.90;;;;;;4955168;29;20765;-42
2020/12/15 10:21:05;;;;;;;16.63;14.57;;;6.90;99.90;;;;;;4955606;28;20233;-41
2020/12/15 10:23:34;;;;;;;13.60;11.95;;;7.10;99.90;;;;;;4955156;29;20211;-41
2020/12/15 10:26:01;;;;;;;14.97;13.00;;;7.20;99.90;;;;;;4955287;29;20326;-41
2020/12/15 10:28:30;;;;;;;12.27;11.07;;;7.30;99.90;;;;;;4955278;29;20278;-42
2020/12/15 10:30:58;;;;;;;12.70;11.43;;;7.40;99.90;;;;;;4955139;29;20215;-41
2020/12/15 10:33:25;;;;;;;11.13;10.00;;;7.40;99.90;;;;;;4955032;29;20207;-40
2020/12/15 10:36:03;;;;;;;11.68;10.52;;;7.50;99.90;;;;;;4954638;29;20206;-41
2020/12/15 10:38:31;;;;;;;12.77;10.57;;;7.60;99.90;;;;;;4955271;29;20303;-41
2020/12/15 10:40:58;;;;;;;10.83;9.73;;;7.60;99.90;;;;;;4954557;29;20692;-41
2020/12/15 10:43:25;;;;;;;12.13;11.00;;;7.60;99.90;;;;;;4954722;28;20301;-42
2020/12/15 10:45:52;;;;;;;11.67;9.60;;;7.70;99.90;;;;;;4954846;29;20263;-40
2020/12/15 10:48:20;;;;;;;12.32;9.38;;;7.80;99.90;;;;;;4954857;28;20675;-40
2020/12/15 10:50:47;;;;;;;10.73;9.60;;;7.90;99.90;;;;;;4954836;28;20331;-40
2020/12/15 10:53:14;;;;;;;11.30;9.88;;;7.80;99.90;;;;;;4955093;29;20302;-41
2020/12/15 10:55:43;;;;;;;9.77;8.77;;;7.70;99.90;;;;;;4954905;29;20211;-40
2020/12/15 10:58:10;;;;;;;9.90;8.23;;;7.70;99.90;;;;;;4954936;28;20215;-41
2020/12/15 11:00:37;;;;;;;10.30;9.30;;;7.80;99.90;;;;;;4954752;29;20217;-44
2020/12/15 11:03:04;;;;;;;9.77;8.90;;;8.00;99.90;;;;;;4954396;28;20589;-41
2020/12/15 11:05:32;;;;;;;8.70;8.00;;;8.10;99.90;;;;;;4954493;29;20286;-43
2020/12/15 11:07:59;;;;;;;10.77;9.60;;;8.30;99.90;;;;;;4954094;29;20674;-41
2020/12/15 11:10:26;;;;;;;11.73;9.20;;;8.40;99.90;;;;;;4954035;29;20583;-44
2020/12/15 11:12:53;;;;;;;14.67;13.30;;;8.50;99.90;;;;;;4954151;29;20299;-44
2020/12/15 11:15:20;;;;;;;18.90;17.00;;;8.60;99.90;;;;;;4954371;29;20258;-40
2020/12/15 11:17:47;;;;;;;10.30;9.40;;;8.70;99.90;;;;;;4954224;28;20310;-43
2020/12/15 11:20:14;;;;;;;11.40;10.38;;;8.70;99.90;;;;;;4954164;29;20218;-43
2020/12/15 11:22:42;;;;;;;10.47;9.43;;;8.70;99.90;;;;;;4954247;29;20219;-42
2020/12/15 11:25:09;;;;;;;9.73;8.02;;;8.80;99.90;;;;;;4954133;29;20231;-43
2020/12/15 11:27:36;;;;;;;11.73;9.27;;;8.80;99.90;;;;;;4954193;29;20556;-40
2020/12/15 11:30:03;;;;;;;10.93;9.50;;;8.90;99.90;;;;;;4953728;28;20310;-41
2020/12/15 11:32:31;;;;;;;9.77;8.77;;;8.90;99.90;;;;;;4953935;29;20229;-42
2020/12/15 11:34:59;;;;;;;10.60;9.63;;;8.70;99.90;;;;;;4954354;28;20211;-41
2020/12/15 11:37:26;;;;;;;14.95;10.35;;;8.60;99.90;;;;;;4954100;29;20306;-45
2020/12/15 11:39:53;;;;;;;11.00;9.87;;;8.40;99.90;;;;;;4954614;28;20211;-42
2020/12/15 11:42:21;;;;;;;8.60;7.70;;;8.20;99.90;;;;;;4955873;28;20367;-41
2020/12/15 11:44:54;;;;;;;9.63;8.70;;;8.20;99.90;;;;;;4953641;29;20226;-40
2020/12/15 11:47:23;;;;;;;11.13;8.40;;;8.10;99.90;;;;;;4953890;29;20346;-41
2020/12/15 11:49:50;;;;;;;10.63;9.43;;;8.10;99.90;;;;;;4953551;28;20585;-41
2020/12/15 11:52:22;;;;;;;9.73;8.83;;;8.10;99.90;;;;;;4953949;29;20215;-41
2020/12/15 11:54:49;;;;;;;15.68;10.50;;;8.10;99.90;;;;;;4953943;29;20215;-42
2020/12/15 11:57:18;;;;;;;10.03;9.00;;;8.10;99.90;;;;;;4954148;28;20630;-41
2020/12/15 11:59:45;;;;;;;12.53;10.20;;;8.00;99.90;;;;;;4955470;28;20215;-43
2020/12/15 12:02:12;;;;;;;10.38;9.38;;;7.80;99.90;;;;;;4957706;29;20258;-41
2020/12/15 12:04:39;;;;;;;14.47;13.07;;;7.70;99.90;;;;;;4957264;29;20227;-42
2020/12/15 12:07:07;;;;;;;16.37;11.97;;;7.60;99.90;;;;;;4957490;29;20302;-41
2020/12/15 12:09:35;;;;;;;15.57;13.97;;;7.50;99.90;;;;;;4957161;29;20266;-42
2020/12/15 12:12:03;;;;;;;19.10;17.17;;;7.50;99.90;;;;;;4957379;28;20238;-41
2020/12/15 12:14:31;;;;;;;13.65;10.13;;;7.50;99.90;;;;;;4957070;29;20292;-42
2020/12/15 12:17:17;;;;;;;14.13;12.70;;;7.50;99.90;;;;;;4957369;29;20223;-42
2020/12/15 12:19:44;;;;;;;12.70;11.50;;;7.40;99.90;;;;;;4957184;29;20242;-42
2020/12/15 12:22:12;;;;;;;15.77;10.97;;;7.40;99.90;;;;;;4957032;29;20215;-42
2020/12/15 12:24:39;;;;;;;15.80;11.00;;;7.30;99.90;;;;;;4957299;29;20298;-42
2020/12/15 12:27:06;;;;;;;13.93;10.17;;;7.30;99.90;;;;;;4957337;28;20282;-41
2020/12/15 12:29:34;;;;;;;13.13;11.53;;;7.20;99.90;;;;;;4956984;29;20207;-43
2020/12/15 12:32:01;;;;;;;11.13;10.03;;;7.10;99.90;;;;;;4957273;29;20215;-42
2020/12/15 12:34:28;;;;;;;11.47;10.37;;;7.00;99.90;;;;;;4957036;29;20278;-42
2020/12/15 12:36:55;;;;;;;15.57;10.93;;;7.10;99.90;;;;;;4957525;29;20302;-41
2020/12/15 12:39:22;;;;;;;15.20;10.70;;;7.20;99.90;;;;;;4957341;29;20235;-42
2020/12/15 12:41:50;;;;;;;10.97;9.87;;;7.40;99.90;;;;;;4957053;29;20321;-41
2020/12/15 12:44:17;;;;;;;12.10;10.25;;;7.60;99.90;;;;;;4956706;29;20247;-42